EDT,Max TemperatureF,Mean TemperatureF,Min TemperatureF,Max Dew PointF,MeanDew PointF,Min DewpointF,Max Humidity, Mean Humidity, Min Humidity, Max Sea Level PressureIn, Mean Sea Level PressureIn, Min Sea Level PressureIn, Max VisibilityMiles, Mean VisibilityMiles, Min VisibilityMiles, Max Wind SpeedMPH, Mean Wind SpeedMPH, Max Gust SpeedMPH,PrecipitationIn, CloudCover, Events, WindDirDegrees
2013-9-1,86,77,67,72,68,66,100,80,59,29.88,29.83,29.78,10,7,0,9,2,13,0.01,3,Fog-Rain,204
2013-9-2,87,78,68,72,69,67,100,76,51,29.83,29.79,29.75,10,9,5,9,3,13,T,2,Rain,201
2013-9-3,85,75,64,69,65,57,93,72,51,29.96,29.84,29.75,10,10,6,7,2,9,0.00,2,,1
2013-9-4,80,69,57,64,59,56,93,72,50,30.10,30.05,29.97,10,9,5,9,2,13,0.00,0,,193
2013-9-5,84,70,55,64,58,55,100,71,42,30.13,30.07,30.01,10,7,0,8,2,12,0.00,1,Fog,329
2013-9-6,75,66,56,57,52,49,93,67,41,30.26,30.18,30.13,10,10,10,14,3,20,0.00,0,,41
2013-9-7,79,66,52,63,58,51,100,77,54,30.15,30.05,29.94,10,10,6,12,3,15,0.00,0,,207
2013-9-8,87,74,61,70,63,59,100,74,48,30.01,29.94,29.88,10,8,0,12,3,28,0.00,2,Fog-Thunderstorm,214
2013-9-9,76,71,65,66,60,54,100,79,57,30.22,30.14,30.04,10,10,8,14,4,18,0.00,5,,56
2013-9-10,89,77,65,72,68,64,93,73,52,30.18,30.15,30.11,10,9,6,13,5,29,0.00,2,,199
2013-9-11,90,80,69,72,71,69,100,76,52,30.16,30.10,30.02,10,8,3,12,4,15,0.00,1,,175
2013-9-12,90,80,69,72,69,64,100,75,50,29.99,29.88,29.77,10,7,2,14,4,17,0.06,2,Rain-Thunderstorm,204
2013-9-13,78,67,56,63,54,47,81,59,36,29.95,29.81,29.73,10,10,10,13,5,21,0.00,2,,343
2013-9-14,68,59,49,50,45,41,93,66,39,30.17,30.07,29.96,10,10,10,12,3,16,0.00,0,,4
2013-9-15,76,60,44,58,51,44,100,73,46,30.24,30.17,30.09,10,9,4,15,4,22,0.00,0,,195
2013-9-16,70,62,53,61,57,52,93,77,61,30.24,30.13,30.06,10,10,8,12,3,17,T,4,,327
2013-9-17,69,58,46,53,48,39,93,65,37,30.42,30.34,30.25,10,10,7,14,6,20,0.00,3,,44
2013-9-18,70,55,40,53,46,39,100,72,44,30.35,30.28,30.20,10,10,10,10,2,16,0.00,1,,181
2013-9-19,75,63,51,59,54,50,100,78,55,30.20,30.14,30.09,10,10,5,9,3,13,0.00,4,,164
2013-9-20,76,66,55,65,59,55,100,82,64,30.09,30.05,29.96,10,7,0,10,2,13,0.00,6,Fog,168
2013-9-21,68,64,59,66,64,61,100,97,93,29.95,29.80,29.69,10,4,1,12,6,15,0.58,8,Rain,185
2013-9-22,74,64,53,61,55,50,100,74,47,29.96,29.81,29.75,10,5,0,10,3,,0.00,2,Fog,344
2013-9-23,68,57,45,50,47,44,96,71,45,30.11,30.05,29.96,10,10,9,10,3,,0.00,1,,43
2013-9-24,72,60,48,56,51,46,100,75,49,30.11,30.05,29.95,10,8,2,9,2,,0.00,4,,179
2013-9-25,71,60,48,57,52,48,100,74,47,30.00,29.95,29.90,10,6,0,9,1,,0.00,1,Fog,73
2013-9-26,76,64,52,56,52,48,93,66,38,30.09,29.99,29.91,10,10,10,12,3,14,0.00,2,,27
2013-9-27,72,60,47,57,53,48,100,77,53,30.23,30.16,30.08,10,10,7,9,2,14,0.00,3,,73
2013-9-28,66,61,56,57,54,52,93,78,63,30.30,30.26,30.22,10,10,10,8,2,13,0.00,8,,57
2013-9-29,73,62,50,55,50,46,100,71,41,30.21,30.13,30.06,10,10,6,8,1,13,0.00,2,,78
2013-9-30,75,61,47,58,53,46,100,75,49,30.10,30.05,29.99,10,10,8,9,1,13,0.00,1,,155